Time;durP1;ratioP1;P1;durP2;ratioP2;P2;SDS_P1;SDS_P2;PMS_P1;PMS_P2;Temp;Humidity;BMP_temperature;BMP_pressure;BME280_temperature;BME280_humidity;BME280_pressure;Samples;Min_cycle;Max_cycle;Signal;HPM_P1;HPM_P2
2022/11/04 00:02:26;;;;;;;;;;;;;;;12.33;75.55;101304.84;5043316;28;19916;-86
2022/11/04 00:04:51;;;;;;;;;;;;;;;12.30;75.55;101307.03;5044677;28;19921;-85
2022/11/04 00:10:01;;;;;;;;;;;;;;;12.23;75.61;101301.41;5027184;28;19975;-85
2022/11/04 00:12:26;;;;;;;;;;;;;;;12.11;76.08;101297.28;5052459;28;19921;-83
2022/11/04 00:14:52;;;;;;;;;;;;;;;12.10;75.96;101295.56;5055247;28;19917;-88
2022/11/04 00:17:23;;;;;;;;;;;;;;;12.08;76.30;101292.19;5045357;28;19921;-86
2022/11/04 00:30:52;;;;;;;;;;;;;;;11.79;77.82;101294.06;5037600;28;20070;-86
2022/11/04 00:33:27;;;;;;;;;;;;;;;11.76;78.08;101290.84;5027993;28;19925;-86
2022/11/04 00:35:56;;;;;;;;;;;;;;;11.77;78.14;101284.47;5026205;28;19920;-86
2022/11/04 00:38:25;;;;;;;;;;;;;;;11.79;78.13;101277.91;5044328;28;19921;-87
2022/11/04 00:40:50;;;;;;;;;;;;;;;11.83;78.04;101286.56;5027834;28;20317;-88
2022/11/04 00:43:15;;;;;;;;;;;;;;;11.75;77.98;101279.25;5020798;28;19921;-86
2022/11/04 00:45:42;;;;;;;;;;;;;;;11.72;78.28;101270.59;5052342;28;20034;-87
2022/11/04 00:48:07;;;;;;;;;;;;;;;11.60;78.59;101268.13;5027735;28;19921;-87
2022/11/04 00:50:33;;;;;;;;;;;;;;;11.64;78.65;101265.16;5046300;28;19947;-87
2022/11/04 00:52:59;;;;;;;;;;;;;;;11.62;78.54;101266.13;5023544;28;19925;-86
2022/11/04 00:55:24;;;;;;;;;;;;;;;11.68;78.13;101261.13;5051308;28;19921;-87
2022/11/04 00:57:49;;;;;;;;;;;;;;;11.67;78.18;101259.44;5046059;28;20347;-87
2022/11/04 01:00:18;;;;;;;;;;;;;;;11.70;77.99;101261.81;5043456;28;19921;-86
2022/11/04 01:02:46;;;;;;;;;;;;;;;11.70;77.83;101267.22;5044444;28;19940;-87
2022/11/04 01:05:12;;;;;;;;;;;;;;;11.66;78.07;101250.53;5034330;28;19997;-86
2022/11/04 01:07:37;;;;;;;;;;;;;;;11.64;77.80;101251.69;5048600;28;19972;-86
2022/11/04 01:10:03;;;;;;;;;;;;;;;11.57;78.08;101254.16;5031122;28;19963;-85
2022/11/04 01:12:28;;;;;;;;;;;;;;;11.49;78.38;101254.88;5026594;28;19921;-86
2022/11/04 01:14:54;;;;;;;;;;;;;;;11.52;78.17;101251.91;5031828;28;20385;-85
2022/11/04 01:17:19;;;;;;;;;;;;;;;11.53;78.12;101258.97;5027357;28;19928;-84
2022/11/04 01:19:44;;;;;;;;;;;;;;;11.49;78.12;101254.03;5050444;28;19991;-86
2022/11/04 01:22:10;;;;;;;;;;;;;;;11.43;78.55;101252.81;5045173;28;20039;-86
2022/11/04 01:24:35;;;;;;;;;;;;;;;11.45;78.38;101247.25;5039751;28;19952;-85
2022/11/04 01:27:00;;;;;;;;;;;;;;;11.44;78.30;101251.81;5050554;28;19936;-84
2022/11/04 01:29:26;;;;;;;;;;;;;;;11.43;78.34;101244.75;5046352;28;20054;-85
2022/11/04 01:31:53;;;;;;;;;;;;;;;11.36;78.54;101243.66;5054173;28;19928;-86
2022/11/04 01:34:20;;;;;;;;;;;;;;;11.33;78.59;101255.59;5045314;28;19935;-83
2022/11/04 01:36:46;;;;;;;;;;;;;;;11.29;79.14;101247.97;5048291;28;20014;-84
2022/11/04 01:39:12;;;;;;;;;;;;;;;11.29;79.41;101243.41;5050888;28;19967;-86
2022/11/04 01:41:37;;;;;;;;;;;;;;;11.32;79.20;101239.56;5048808;28;19928;-85
2022/11/04 01:44:03;;;;;;;;;;;;;;;11.29;79.39;101243.41;5047831;28;19928;-85
2022/11/04 01:46:29;;;;;;;;;;;;;;;11.31;79.36;101246.81;5028496;28;20289;-85
2022/11/04 01:48:58;;;;;;;;;;;;;;;11.28;79.52;101243.56;5044125;28;19936;-84
2022/11/04 01:51:23;;;;;;;;;;;;;;;11.31;79.23;101245.97;5044722;28;19921;-84
2022/11/04 01:53:50;;;;;;;;;;;;;;;11.27;79.63;101239.19;5030019;28;19966;-85
2022/11/04 01:56:15;;;;;;;;;;;;;;;11.23;79.68;101237.78;5014518;28;20246;-85
2022/11/04 01:58:48;;;;;;;;;;;;;;;11.23;79.50;101232.41;5044437;28;19921;-84
2022/11/04 02:01:14;;;;;;;;;;;;;;;11.24;79.42;101240.34;5029735;28;19920;-86
2022/11/04 02:06:41;;;;;;;;;;;;;;;11.19;79.23;101243.47;5034430;28;20013;-84
2022/11/04 02:09:06;;;;;;;;;;;;;;;11.16;79.02;101233.00;5045423;28;20379;-85
2022/11/04 02:14:17;;;;;;;;;;;;;;;11.15;79.00;101230.47;5044558;28;19994;-84
2022/11/04 02:16:43;;;;;;;;;;;;;;;11.16;79.04;101230.31;5028214;28;19917;-85
2022/11/04 02:19:27;;;;;;;;;;;;;;;11.01;79.38;101229.13;5026152;28;20270;-85
2022/11/04 02:22:11;;;;;;;;;;;;;;;11.07;79.55;101230.38;5037397;28;19920;-83
2022/11/04 02:24:55;;;;;;;;;;;;;;;11.05;79.84;101225.16;5037962;28;19936;-83
2022/11/04 02:27:25;;;;;;;;;;;;;;;11.02;79.96;101222.75;5043565;28;20021;-85
2022/11/04 02:29:50;;;;;;;;;;;;;;;11.01;80.42;101213.00;5016632;28;19924;-85
2022/11/04 02:32:25;;;;;;;;;;;;;;;11.05;80.59;101221.59;5046919;28;19921;-85
2022/11/04 02:35:09;;;;;;;;;;;;;;;10.98;80.75;101216.00;5029084;28;20435;-85
2022/11/04 02:37:41;;;;;;;;;;;;;;;11.02;81.22;101214.66;5042370;28;19921;-83
2022/11/04 02:40:15;;;;;;;;;;;;;;;11.04;81.47;101215.38;5024999;28;19928;-80
2022/11/04 02:42:43;;;;;;;;;;;;;;;11.06;81.73;101216.06;5031142;28;19931;-83
2022/11/04 02:45:13;;;;;;;;;;;;;;;10.93;82.80;101219.13;5025432;28;20016;-82
2022/11/04 02:47:39;;;;;;;;;;;;;;;10.88;83.83;101216.00;5028673;28;20399;-85
2022/11/04 02:50:16;;;;;;;;;;;;;;;10.83;84.18;101214.78;5037982;28;19931;-85
2022/11/04 02:53:08;;;;;;;;;;;;;;;10.92;83.76;101213.88;5025366;28;20049;-85
2022/11/04 02:55:41;;;;;;;;;;;;;;;11.00;83.45;101213.97;5018813;28;20030;-85
2022/11/04 02:58:09;;;;;;;;;;;;;;;10.92;84.12;101211.19;5010731;28;20416;-86
2022/11/04 03:00:35;;;;;;;;;;;;;;;11.00;83.46;101211.28;5015914;28;19935;-87
2022/11/04 03:03:11;;;;;;;;;;;;;;;11.03;83.22;101205.63;5023476;28;19951;-86
2022/11/04 03:05:38;;;;;;;;;;;;;;;11.00;83.84;101205.91;5032692;28;19921;-84
2022/11/04 03:08:06;;;;;;;;;;;;;;;10.99;83.57;101215.81;5030645;28;19925;-84
2022/11/04 03:10:36;;;;;;;;;;;;;;;11.08;82.98;101213.25;5032399;28;19917;-85
2022/11/04 03:13:07;;;;;;;;;;;;;;;11.01;83.37;101206.78;5022804;28;20118;-85
2022/11/04 03:15:33;;;;;;;;;;;;;;;11.04;83.04;101207.28;5021164;28;19917;-86
2022/11/04 03:18:01;;;;;;;;;;;;;;;11.06;83.09;101202.63;5044092;28;19925;-86
2022/11/04 03:20:26;;;;;;;;;;;;;;;11.18;82.73;101214.84;5050093;28;19916;-85
2022/11/04 03:22:54;;;;;;;;;;;;;;;11.05;83.01;101203.63;5023214;28;19921;-86
2022/11/04 03:25:20;;;;;;;;;;;;;;;11.07;82.86;101206.97;5049102;28;19924;-85
2022/11/04 03:27:49;;;;;;;;;;;;;;;11.11;82.51;101208.38;5023290;28;19922;-86
2022/11/04 03:30:18;;;;;;;;;;;;;;;11.15;82.42;101208.94;5030336;28;19924;-85
2022/11/04 03:33:18;;;;;;;;;;;;;;;11.06;82.56;101205.31;5026041;28;19924;-87
2022/11/04 03:35:43;;;;;;;;;;;;;;;11.01;83.50;101206.78;4991279;28;19917;-87
2022/11/04 03:38:10;;;;;;;;;;;;;;;11.01;83.57;101212.16;5022628;28;19927;-85
2022/11/04 03:40:36;;;;;;;;;;;;;;;11.07;83.24;101217.75;5049875;28;19973;-86
2022/11/04 03:43:10;;;;;;;;;;;;;;;11.03;82.78;101215.50;5046278;28;20014;-86
2022/11/04 03:45:36;;;;;;;;;;;;;;;11.12;83.19;101211.91;5028639;28;19924;-86
2022/11/04 03:48:02;;;;;;;;;;;;;;;11.12;82.59;101204.72;5050851;28;19931;-85
2022/11/04 03:50:31;;;;;;;;;;;;;;;11.13;82.37;101206.41;5042950;28;19935;-81
2022/11/04 03:52:57;;;;;;;;;;;;;;;11.10;82.72;101201.31;5051617;28;19936;-85
2022/11/04 03:55:45;;;;;;;;;;;;;;;11.06;82.72;101202.63;5032272;28;20340;-84
2022/11/04 03:58:19;;;;;;;;;;;;;;;11.05;82.66;101200.94;4998743;28;20363;-84
2022/11/04 04:00:46;;;;;;;;;;;;;;;11.04;82.96;101196.53;5021449;28;20332;-87
2022/11/04 04:03:17;;;;;;;;;;;;;;;11.12;82.46;101185.00;5019796;28;19925;-85
2022/11/04 04:05:43;;;;;;;;;;;;;;;11.12;83.59;101183.19;5032850;28;19924;-85
2022/11/04 04:08:09;;;;;;;;;;;;;;;11.11;83.36;101192.25;5032187;28;20348;-84
2022/11/04 04:11:00;;;;;;;;;;;;;;;11.16;82.59;101184.56;5046193;28;19925;-85
2022/11/04 04:13:32;;;;;;;;;;;;;;;11.15;82.25;101185.56;5048606;28;19921;-85
2022/11/04 04:16:02;;;;;;;;;;;;;;;11.17;81.89;101191.66;5034423;28;19920;-86
2022/11/04 04:18:53;;;;;;;;;;;;;;;11.14;82.15;101181.19;5029394;28;19917;-85
2022/11/04 04:21:20;;;;;;;;;;;;;;;11.03;83.97;101181.41;5035642;28;19924;-85
2022/11/04 04:29:13;;;;;;;;;;;;;;;11.11;84.52;101181.47;5041166;28;19974;-88
2022/11/04 04:31:51;;;;;;;;;;;;;;;11.15;84.61;101182.88;5038847;28;19921;-86
2022/11/04 04:34:26;;;;;;;;;;;;;;;11.21;85.43;101181.41;5034308;28;19987;-85
2022/11/04 04:37:11;;;;;;;;;;;;;;;11.25;84.79;101187.34;5030299;28;20086;-85
2022/11/04 04:45:08;;;;;;;;;;;;;;;11.50;86.08;101177.66;5020819;28;20266;-84
2022/11/04 04:47:38;;;;;;;;;;;;;;;11.56;85.00;101180.56;5031590;28;19925;-83
2022/11/04 04:50:04;;;;;;;;;;;;;;;11.70;85.10;101181.03;5042896;28;19928;-88
2022/11/04 04:52:33;;;;;;;;;;;;;;;11.68;84.25;101180.34;5014276;28;20375;-86
2022/11/04 04:54:59;;;;;;;;;;;;;;;11.70;84.37;101181.03;5018114;28;20320;-85
2022/11/04 04:57:24;;;;;;;;;;;;;;;11.73;83.26;101186.09;5047901;28;19921;-83
2022/11/04 04:59:49;;;;;;;;;;;;;;;11.74;82.64;101187.81;5018575;28;19921;-84
2022/11/04 05:02:15;;;;;;;;;;;;;;;11.79;82.58;101185.47;5046743;28;19927;-84
2022/11/04 05:04:40;;;;;;;;;;;;;;;11.86;81.80;101186.53;5034517;28;19921;-84
2022/11/04 05:07:11;;;;;;;;;;;;;;;11.84;81.19;101177.78;5020156;28;19978;-82
2022/11/04 05:09:37;;;;;;;;;;;;;;;11.90;81.26;101187.13;5044627;28;19924;-84
2022/11/04 05:12:02;;;;;;;;;;;;;;;11.98;81.15;101190.69;5043635;28;19921;-84
2022/11/04 05:14:28;;;;;;;;;;;;;;;12.03;81.33;101199.19;5036393;28;19927;-81
2022/11/04 05:16:53;;;;;;;;;;;;;;;12.13;80.65;101193.69;5045669;28;19963;-84
2022/11/04 05:19:18;;;;;;;;;;;;;;;12.26;79.90;101187.88;5032728;28;20313;-84
2022/11/04 05:21:44;;;;;;;;;;;;;;;12.24;80.02;101196.13;5047412;28;20346;-85
2022/11/04 05:24:09;;;;;;;;;;;;;;;12.37;80.20;101190.28;5039542;28;19975;-84
2022/11/04 05:26:34;;;;;;;;;;;;;;;12.32;79.88;101197.19;5031584;28;19925;-84
2022/11/04 05:29:00;;;;;;;;;;;;;;;12.46;80.39;101200.13;5040790;28;20004;-84
2022/11/04 05:31:26;;;;;;;;;;;;;;;12.67;80.59;101196.19;5028930;28;19952;-86
2022/11/04 05:33:52;;;;;;;;;;;;;;;12.91;81.36;101197.28;5012751;28;19937;-86
2022/11/04 05:36:17;;;;;;;;;;;;;;;13.29;79.95;101182.41;5032138;28;20395;-86
2022/11/04 05:38:44;;;;;;;;;;;;;;;13.53;79.44;101187.00;5050378;28;19932;-88
2022/11/04 05:41:10;;;;;;;;;;;;;;;13.89;77.95;101202.91;5052287;28;20047;-86
2022/11/04 05:43:36;;;;;;;;;;;;;;;14.21;77.69;101191.22;5042505;28;19921;-84
2022/11/04 05:46:01;;;;;;;;;;;;;;;14.27;77.09;101197.78;5033402;28;20358;-84
2022/11/04 05:48:28;;;;;;;;;;;;;;;14.43;76.46;101199.59;5041495;28;19921;-85
2022/11/04 05:50:56;;;;;;;;;;;;;;;14.61;75.22;101196.69;5050105;28;20026;-86
2022/11/04 05:53:21;;;;;;;;;;;;;;;15.46;72.23;101195.94;5029377;28;20278;-85
2022/11/04 05:55:48;;;;;;;;;;;;;;;16.27;69.72;101204.41;5046781;28;20036;-87
2022/11/04 05:58:13;;;;;;;;;;;;;;;17.11;66.77;101198.72;5029603;28;19924;-86
2022/11/04 06:00:38;;;;;;;;;;;;;;;18.01;63.33;101208.22;5028534;28;19917;-86
2022/11/04 06:03:04;;;;;;;;;;;;;;;18.98;61.14;101215.56;5029547;28;19935;-86
2022/11/04 06:05:29;;;;;;;;;;;;;;;19.91;57.34;101204.09;5018214;28;19975;-86
2022/11/04 06:07:55;;;;;;;;;;;;;;;20.89;54.90;101206.06;5011857;28;19921;-85
2022/11/04 06:10:20;;;;;;;;;;;;;;;21.44;52.50;101198.22;5032636;28;19976;-84
2022/11/04 06:12:50;;;;;;;;;;;;;;;21.42;51.44;101198.47;5030336;28;19917;-88
2022/11/04 06:15:16;;;;;;;;;;;;;;;22.34;48.95;101197.97;5034466;28;20004;-92
2022/11/04 06:17:41;;;;;;;;;;;;;;;23.37;47.59;101197.16;5022593;28;19917;-91
2022/11/04 06:20:07;;;;;;;;;;;;;;;24.26;45.07;101192.84;5015542;28;20365;-90
2022/11/04 06:22:32;;;;;;;;;;;;;;;24.52;42.84;101177.78;5026879;28;19988;-91
2022/11/04 06:24:58;;;;;;;;;;;;;;;24.10;43.68;101177.91;5053027;28;20289;-88
2022/11/04 06:27:23;;;;;;;;;;;;;;;24.70;42.60;101180.38;5027862;28;19917;-89
2022/11/04 06:29:51;;;;;;;;;;;;;;;24.80;42.13;101186.09;5026543;28;19987;-90
2022/11/04 06:32:17;;;;;;;;;;;;;;;25.79;40.26;101186.88;5035049;28;20057;-91
2022/11/04 06:34:42;;;;;;;;;;;;;;;26.49;38.53;101193.75;5034132;28;19920;-91
2022/11/04 06:37:08;;;;;;;;;;;;;;;26.39;38.32;101199.16;5034437;28;19917;-89
2022/11/04 06:39:34;;;;;;;;;;;;;;;26.07;38.81;101206.09;5026316;28;20429;-91
2022/11/04 06:41:59;;;;;;;;;;;;;;;26.34;38.10;101202.66;5028308;28;20047;-91
2022/11/04 06:44:25;;;;;;;;;;;;;;;27.23;36.86;101209.09;5027678;28;20063;-92
2022/11/04 06:46:50;;;;;;;;;;;;;;;27.53;36.24;101209.44;5015900;28;19974;-93
2022/11/04 06:49:18;;;;;;;;;;;;;;;28.07;34.85;101197.47;5034799;28;19956;-91
2022/11/04 06:51:44;;;;;;;;;;;;;;;27.62;35.05;101200.66;5033173;28;19932;-91
2022/11/04 06:54:10;;;;;;;;;;;;;;;28.46;33.62;101201.88;5034222;28;20389;-93
2022/11/04 06:56:35;;;;;;;;;;;;;;;28.58;33.25;101199.75;5035388;28;20368;-92
2022/11/04 06:59:01;;;;;;;;;;;;;;;27.94;34.33;101197.94;5032898;28;19917;-90
2022/11/04 07:01:27;;;;;;;;;;;;;;;28.37;33.92;101191.31;5034088;28;20333;-91
2022/11/04 07:03:55;;;;;;;;;;;;;;;28.44;33.51;101190.25;5011478;28;19979;-90
2022/11/04 07:06:21;;;;;;;;;;;;;;;29.16;32.24;101186.75;5032848;28;19923;-90
2022/11/04 07:08:46;;;;;;;;;;;;;;;29.67;31.62;101188.81;5028405;28;19920;-89
2022/11/04 07:11:12;;;;;;;;;;;;;;;30.02;30.65;101182.41;5033508;28;20357;-90
2022/11/04 07:13:39;;;;;;;;;;;;;;;29.30;31.63;101181.50;5032622;28;19917;-90
2022/11/04 07:16:05;;;;;;;;;;;;;;;28.57;32.36;101181.50;5034513;28;19956;-90
2022/11/04 07:18:31;;;;;;;;;;;;;;;28.13;33.25;101179.00;5022251;28;19928;-90
2022/11/04 07:20:58;;;;;;;;;;;;;;;28.70;32.25;101177.41;5043723;28;19916;-90
2022/11/04 07:23:23;;;;;;;;;;;;;;;28.86;32.18;101172.78;5028201;28;19917;-87
2022/11/04 07:25:49;;;;;;;;;;;;;;;29.52;31.46;101174.91;5036131;28;20368;-91
2022/11/04 07:28:14;;;;;;;;;;;;;;;28.22;32.92;101180.19;5021939;28;20319;-90
2022/11/04 07:30:40;;;;;;;;;;;;;;;28.23;33.35;101173.53;5034106;28;19920;-90
2022/11/04 07:33:05;;;;;;;;;;;;;;;28.88;32.46;101174.16;5005172;28;19940;-90
2022/11/04 07:35:32;;;;;;;;;;;;;;;29.24;31.62;101174.28;5033027;28;19917;-91
2022/11/04 07:38:02;;;;;;;;;;;;;;;29.69;31.10;101171.88;5019624;28;19917;-90
2022/11/04 07:40:28;;;;;;;;;;;;;;;29.91;30.24;101166.91;5043617;28;19962;-90
2022/11/04 07:42:54;;;;;;;;;;;;;;;30.22;30.12;101170.44;5039998;28;19939;-90
2022/11/04 07:45:19;;;;;;;;;;;;;;;29.33;31.04;101164.34;5042038;28;20373;-91
2022/11/04 07:47:45;;;;;;;;;;;;;;;29.01;31.51;101170.06;5024682;28;20023;-91
2022/11/04 07:50:10;;;;;;;;;;;;;;;29.13;31.15;101165.16;5007632;28;20394;-89
2022/11/04 07:52:35;;;;;;;;;;;;;;;27.94;32.83;101165.59;5024473;28;19921;-90
2022/11/04 07:55:01;;;;;;;;;;;;;;;29.00;31.72;101154.56;5021922;28;19961;-91
2022/11/04 07:57:28;;;;;;;;;;;;;;;29.25;31.10;101162.97;5017197;28;19920;-91
2022/11/04 07:59:53;;;;;;;;;;;;;;;28.91;31.71;101161.72;5032104;28;19921;-93
2022/11/04 08:02:18;;;;;;;;;;;;;;;29.52;31.04;101167.41;5028752;28;20008;-91
2022/11/04 08:04:45;;;;;;;;;;;;;;;30.63;29.21;101164.81;5027150;28;20003;-91
2022/11/04 08:07:10;;;;;;;;;;;;;;;29.94;29.58;101158.00;5023731;28;20005;-92
2022/11/04 08:09:36;;;;;;;;;;;;;;;29.20;30.81;101162.13;5017446;28;20416;-93
2022/11/04 08:12:04;;;;;;;;;;;;;;;30.04;29.97;101158.03;5012719;28;19925;-91
2022/11/04 08:14:29;;;;;;;;;;;;;;;29.84;30.33;101149.72;5044832;28;19987;-92
2022/11/04 08:16:56;;;;;;;;;;;;;;;29.06;31.16;101153.47;5050368;28;19921;-92
2022/11/04 08:19:22;;;;;;;;;;;;;;;29.25;30.93;101151.88;5056246;28;19931;-88
2022/11/04 08:21:48;;;;;;;;;;;;;;;29.40;30.55;101148.28;5041799;28;19921;-90
2022/11/04 08:24:13;;;;;;;;;;;;;;;28.92;31.34;101153.16;5070378;28;20005;-93
2022/11/04 08:26:39;;;;;;;;;;;;;;;29.14;31.11;101154.91;5034224;28;19921;-89
2022/11/04 08:29:05;;;;;;;;;;;;;;;29.88;30.26;101148.06;5051930;28;19917;-89
2022/11/04 08:31:32;;;;;;;;;;;;;;;29.30;30.60;101147.47;5050573;28;19913;-89
2022/11/04 08:33:58;;;;;;;;;;;;;;;29.80;30.35;101151.38;5053093;28;19924;-88
2022/11/04 08:36:23;;;;;;;;;;;;;;;30.95;28.17;101146.09;5031060;28;19917;-89
2022/11/04 08:38:49;;;;;;;;;;;;;;;30.12;29.40;101141.94;5044635;28;19963;-89
2022/11/04 08:41:16;;;;;;;;;;;;;;;29.78;30.24;101136.97;5031204;28;19925;-90
2022/11/04 08:43:42;;;;;;;;;;;;;;;30.00;29.82;101131.97;5048509;28;19924;-89
2022/11/04 08:46:08;;;;;;;;;;;;;;;29.76;30.27;101133.66;5032020;28;19967;-87
2022/11/04 08:48:33;;;;;;;;;;;;;;;29.95;29.71;101129.22;5039009;28;19917;-89
2022/11/04 08:50:59;;;;;;;;;;;;;;;30.53;29.09;101136.28;5031304;28;19995;-88
2022/11/04 08:53:24;;;;;;;;;;;;;;;30.36;29.01;101123.56;5014265;28;19990;-89
2022/11/04 08:55:50;;;;;;;;;;;;;;;29.33;29.98;101121.97;5015066;28;19917;-87
2022/11/04 08:58:16;;;;;;;;;;;;;;;30.32;29.05;101116.97;5028277;28;19916;-88
2022/11/04 09:00:49;;;;;;;;;;;;;;;29.54;30.15;101114.50;5024915;28;19921;-89
2022/11/04 09:03:14;;;;;;;;;;;;;;;29.97;29.21;101112.28;5050747;28;19931;-88
2022/11/04 09:05:43;;;;;;;;;;;;;;;30.42;28.20;101113.31;5038223;28;20007;-89
2022/11/04 09:08:18;;;;;;;;;;;;;;;30.91;27.77;101109.78;5026911;28;20060;-89
2022/11/04 09:10:44;;;;;;;;;;;;;;;29.38;29.01;101105.38;5047916;28;20438;-89
2022/11/04 09:13:10;;;;;;;;;;;;;;;28.82;30.41;101108.84;5026102;28;19924;-88
2022/11/04 09:15:35;;;;;;;;;;;;;;;28.13;31.78;101109.91;5035351;28;19917;-87
2022/11/04 09:18:01;;;;;;;;;;;;;;;28.77;31.08;101103.28;5027183;28;19921;-88
2022/11/04 09:20:27;;;;;;;;;;;;;;;29.07;30.17;101099.81;5045169;28;19932;-88
2022/11/04 09:22:54;;;;;;;;;;;;;;;30.29;28.38;101103.63;5027826;28;19921;-89
2022/11/04 09:25:19;;;;;;;;;;;;;;;29.28;29.91;101099.84;5028170;28;19928;-90
2022/11/04 09:27:45;;;;;;;;;;;;;;;28.72;30.68;101081.16;5031912;28;19975;-89
2022/11/04 09:30:10;;;;;;;;;;;;;;;27.46;32.45;101087.28;5037154;28;19916;-88
2022/11/04 09:32:37;;;;;;;;;;;;;;;28.24;31.31;101081.22;5029867;28;19918;-90
2022/11/04 09:35:03;;;;;;;;;;;;;;;27.62;32.33;101091.00;5036109;28;20006;-90
2022/11/04 09:37:29;;;;;;;;;;;;;;;28.04;32.01;101075.59;5018875;28;19921;-88
2022/11/04 09:39:54;;;;;;;;;;;;;;;29.14;29.89;101083.75;5018262;28;20007;-88
2022/11/04 09:42:29;;;;;;;;;;;;;;;26.65;33.72;101079.84;5030982;28;20278;-86
2022/11/04 09:44:54;;;;;;;;;;;;;;;27.72;32.79;101068.16;5030259;28;19921;-92
2022/11/04 09:47:21;;;;;;;;;;;;;;;28.45;31.79;101059.16;5035978;28;19974;-91
2022/11/04 09:50:25;;;;;;;;;;;;;;;28.09;32.04;101064.56;5038583;28;20368;-93
2022/11/04 09:52:53;;;;;;;;;;;;;;;28.20;31.80;101057.97;5018799;28;19983;-90
2022/11/04 09:55:56;;;;;;;;;;;;;;;27.01;33.70;101060.91;5048396;28;19920;-92
2022/11/04 09:58:21;;;;;;;;;;;;;;;25.66;35.39;101048.44;4940249;29;20052;-90
2022/11/04 10:01:01;;;;;;;;;;;;;;;25.63;36.02;101043.44;4969106;28;19921;-93
2022/11/04 10:06:53;;;;;;;;;;;;;;;26.30;34.69;101041.63;5385066;22;19943;-92
2022/11/04 10:09:37;;;;;;;;;;;;;;;25.28;36.83;101032.69;5032327;28;19935;-92
2022/11/04 10:12:39;;;;;;;;;;;;;;;25.13;37.54;101037.91;5049412;28;20226;-95
2022/11/04 10:15:23;;;;;;;;;;;;;;;26.34;35.77;101034.53;4961262;29;19918;-92
2022/11/04 10:18:00;;;;;;;;;;;;;;;26.28;35.61;101030.88;5042650;28;20000;-88
2022/11/04 10:20:26;;;;;;;;;;;;;;;26.91;35.01;101024.97;5052949;28;19994;-87
2022/11/04 10:22:58;;;;;;;;;;;;;;;26.41;35.68;101020.53;5048949;28;20293;-89
2022/11/04 10:25:55;;;;;;;;;;;;;;;25.85;35.75;101013.19;5036790;28;19920;-91
2022/11/04 10:28:23;;;;;;;;;;;;;;;25.66;36.75;101014.56;5055546;28;19928;-89
2022/11/04 10:30:50;;;;;;;;;;;;;;;26.36;35.72;101012.22;5020923;28;20011;-92
2022/11/04 10:33:18;;;;;;;;;;;;;;;27.75;33.92;101001.34;5035137;28;19928;-91
2022/11/04 10:35:52;;;;;;;;;;;;;;;27.73;33.72;100998.84;5056302;28;19936;-89
2022/11/04 10:38:38;;;;;;;;;;;;;;;27.16;34.82;100989.31;5047102;28;19932;-89
2022/11/04 10:41:11;;;;;;;;;;;;;;;25.64;37.47;100991.97;5052196;28;20026;-91
2022/11/04 10:43:36;;;;;;;;;;;;;;;24.66;39.25;100994.19;5027127;28;19971;-89
2022/11/04 10:46:05;;;;;;;;;;;;;;;25.06;38.95;100983.06;5018959;28;20684;-90
2022/11/04 10:48:40;;;;;;;;;;;;;;;24.73;39.93;100983.88;5048031;28;20011;-89
2022/11/04 10:51:09;;;;;;;;;;;;;;;24.13;41.06;100979.66;5036033;28;19921;-93
2022/11/04 10:53:36;;;;;;;;;;;;;;;23.49;42.79;100969.47;5037713;28;19920;-91
2022/11/04 10:56:21;;;;;;;;;;;;;;;24.52;40.94;100972.50;5043512;28;19959;-93
2022/11/04 10:58:47;;;;;;;;;;;;;;;25.53;38.80;100965.38;5062213;28;19921;-90
2022/11/04 11:01:23;;;;;;;;;;;;;;;25.85;38.19;100958.13;5020958;28;19979;-88
2022/11/04 11:03:50;;;;;;;;;;;;;;;25.77;38.59;100952.22;5055877;28;19917;-92
2022/11/04 11:06:35;;;;;;;;;;;;;;;26.55;36.64;100944.66;5061007;28;19932;-92
2022/11/04 11:09:14;;;;;;;;;;;;;;;26.12;38.15;100935.31;5022178;28;19932;-88
2022/11/04 11:11:41;;;;;;;;;;;;;;;24.98;39.92;100937.56;5036001;28;19943;-89
2022/11/04 11:14:14;;;;;;;;;;;;;;;25.25;39.82;100937.72;5045314;28;19932;-91
2022/11/04 11:16:39;;;;;;;;;;;;;;;26.18;37.72;100927.97;5032496;28;19943;-89
2022/11/04 11:19:11;;;;;;;;;;;;;;;26.36;37.90;100932.28;5045807;28;20858;-89
2022/11/04 11:21:43;;;;;;;;;;;;;;;25.69;39.08;100928.72;5050417;28;20392;-90
2022/11/04 11:24:29;;;;;;;;;;;;;;;24.86;40.48;100928.53;5055699;28;19917;-90
2022/11/04 11:27:21;;;;;;;;;;;;;;;25.59;39.61;100925.81;5056613;28;19983;-89
2022/11/04 11:29:52;;;;;;;;;;;;;;;24.44;41.42;100921.47;5051415;28;20288;-88
2022/11/04 11:32:42;;;;;;;;;;;;;;;24.58;41.71;100915.69;5035990;28;19924;-91
2022/11/04 11:35:14;;;;;;;;;;;;;;;24.78;41.01;100909.72;5039570;28;20385;-89
2022/11/04 11:37:40;;;;;;;;;;;;;;;24.94;40.66;100910.81;5018609;28;19927;-90
2022/11/04 11:40:11;;;;;;;;;;;;;;;25.11;40.52;100919.03;5034628;28;19924;-86
2022/11/04 11:42:40;;;;;;;;;;;;;;;25.04;41.08;100911.78;5036795;28;19913;-86
2022/11/04 11:45:14;;;;;;;;;;;;;;;25.72;39.27;100905.34;5034763;28;20011;-87
2022/11/04 11:47:41;;;;;;;;;;;;;;;26.07;38.69;100902.22;5036422;28;19916;-89
2022/11/04 11:50:38;;;;;;;;;;;;;;;25.18;40.43;100900.47;5029348;28;19919;-91
2022/11/04 11:53:13;;;;;;;;;;;;;;;24.28;42.24;100902.19;5041742;28;19979;-93
2022/11/04 11:55:38;;;;;;;;;;;;;;;23.03;44.69;100904.47;5035328;28;20405;-89
2022/11/04 11:58:22;;;;;;;;;;;;;;;22.45;46.50;100890.41;5043281;28;20081;-93
2022/11/04 12:01:11;;;;;;;;;;;;;;;21.68;48.61;100888.25;5030324;28;20022;-93
2022/11/04 12:03:46;;;;;;;;;;;;;;;21.05;50.36;100900.25;5018798;28;20431;-93
2022/11/04 12:06:16;;;;;;;;;;;;;;;20.74;50.95;100892.94;5033325;28;19943;-93
2022/11/04 12:09:33;;;;;;;;;;;;;;;20.67;51.68;100892.16;5039864;28;19932;-93
2022/11/04 12:14:55;;;;;;;;;;;;;;;20.26;52.86;100889.91;5248494;22;19948;-86
2022/11/04 12:17:27;;;;;;;;;;;;;;;20.15;52.85;100872.31;5033735;28;19920;-86
2022/11/04 12:19:56;;;;;;;;;;;;;;;19.63;54.40;100880.50;5051162;28;19924;-85
2022/11/04 12:22:21;;;;;;;;;;;;;;;19.75;54.00;100881.53;5014313;28;19925;-84
2022/11/04 12:27:53;;;;;;;;;;;;;;;19.78;53.61;100881.13;5041591;28;20400;-85
2022/11/04 12:30:23;;;;;;;;;;;;;;;19.70;53.71;100875.91;5045389;28;19972;-87
2022/11/04 12:33:00;;;;;;;;;;;;;;;19.23;55.01;100871.63;5052725;28;19928;-88
2022/11/04 12:35:31;;;;;;;;;;;;;;;19.00;56.37;100866.63;5034935;28;19924;-86
2022/11/04 12:38:16;;;;;;;;;;;;;;;19.04;56.72;100857.81;5063572;28;19924;-87
2022/11/04 12:44:05;;;;;;;;;;;;;;;18.31;58.70;100863.22;5051974;28;20020;-85
2022/11/04 12:46:37;;;;;;;;;;;;;;;18.52;58.78;100859.50;5054781;28;20015;-86
2022/11/04 12:49:08;;;;;;;;;;;;;;;18.38;58.73;100871.38;5036387;28;20094;-84
2022/11/04 12:51:33;;;;;;;;;;;;;;;18.55;58.58;100861.78;5030241;28;19925;-87
2022/11/04 12:54:24;;;;;;;;;;;;;;;18.87;57.29;100870.19;5040505;28;19974;-90
2022/11/04 12:56:57;;;;;;;;;;;;;;;18.77;57.61;100862.44;5012577;28;20400;-90
2022/11/04 12:59:34;;;;;;;;;;;;;;;18.61;58.00;100866.38;5023838;28;19952;-90
2022/11/04 13:02:09;;;;;;;;;;;;;;;18.27;59.07;100870.13;5049859;28;19928;-90
2022/11/04 13:04:36;;;;;;;;;;;;;;;18.19;59.38;100857.56;5014214;28;19992;-88
2022/11/04 13:07:03;;;;;;;;;;;;;;;18.04;59.64;100857.72;5031708;28;19936;-89
2022/11/04 13:09:40;;;;;;;;;;;;;;;17.73;60.31;100864.50;5038930;28;19929;-88
2022/11/04 13:12:10;;;;;;;;;;;;;;;17.61;60.99;100852.53;5024839;28;19916;-86
2022/11/04 13:14:54;;;;;;;;;;;;;;;17.69;61.20;100859.66;5038491;28;19994;-88
2022/11/04 13:17:31;;;;;;;;;;;;;;;17.56;61.64;100846.88;5056890;28;19975;-87
2022/11/04 13:20:01;;;;;;;;;;;;;;;17.38;62.27;100850.13;5061134;28;19918;-89
2022/11/04 13:22:28;;;;;;;;;;;;;;;17.35;62.48;100853.25;5063341;28;19905;-87
2022/11/04 13:25:06;;;;;;;;;;;;;;;17.08;63.10;100858.50;5031417;28;19917;-87
2022/11/04 13:27:52;;;;;;;;;;;;;;;17.29;63.00;100845.88;5059412;28;19917;-87
2022/11/04 13:30:17;;;;;;;;;;;;;;;17.29;63.00;100852.16;5067195;28;19916;-90
2022/11/04 13:32:58;;;;;;;;;;;;;;;17.21;63.19;100843.34;5061171;28;20047;-90